createdAt,value
2018-05-01T00:01:13.638Z,70.80
2018-05-01T00:03:41.128Z,71.30
2018-05-01T00:06:08.620Z,71.90
2018-05-01T00:08:36.137Z,72.30
2018-05-01T00:11:03.632Z,72.90
2018-05-01T00:13:31.145Z,73.20
2018-05-01T00:15:58.641Z,74.00
2018-05-01T00:18:26.157Z,74.50
2018-05-01T00:20:53.653Z,74.90
2018-05-01T00:23:21.164Z,75.20
2018-05-01T00:25:48.652Z,75.70
2018-05-01T00:28:16.167Z,76.10
2018-05-01T00:30:44.420Z,77.20
2018-05-01T00:33:11.950Z,77.10
2018-05-01T00:35:39.449Z,77.70
2018-05-01T00:38:06.947Z,78.60
2018-05-01T00:40:34.464Z,79.40
2018-05-01T00:43:01.961Z,79.70
2018-05-01T00:45:29.472Z,80.20
2018-05-01T00:47:56.961Z,80.80
2018-05-01T00:50:25.242Z,82.20
2018-05-01T00:52:53.496Z,82.70
2018-05-01T00:55:21.781Z,83.40
2018-05-01T00:57:50.037Z,83.40
2018-05-01T01:00:17.529Z,83.30
2018-05-01T01:02:45.812Z,84.90
2018-05-01T01:05:13.304Z,84.90
2018-05-01T01:07:40.825Z,85.00
2018-05-01T01:10:09.080Z,86.00
2018-05-01T01:12:36.592Z,86.00
2018-05-01T01:15:04.085Z,86.20
2018-05-01T01:17:31.600Z,86.80
2018-05-01T01:19:59.092Z,86.70
2018-05-01T01:22:26.584Z,87.20
2018-05-01T01:24:54.861Z,88.00
2018-05-01T01:27:23.116Z,88.20
2018-05-01T01:29:50.629Z,88.20
2018-05-01T01:32:18.119Z,88.70
2018-05-01T01:34:45.636Z,88.80
2018-05-01T01:37:12.636Z,88.70
2018-05-01T01:39:39.656Z,88.90
2018-05-01T01:42:06.662Z,88.70
2018-05-01T01:44:34.440Z,89.00
2018-05-01T01:47:02.234Z,89.10
2018-05-01T01:49:29.237Z,89.10
2018-05-01T01:51:57.025Z,89.20
2018-05-01T01:54:24.024Z,89.30
2018-05-01T01:56:51.053Z,89.20
2018-05-01T01:59:18.052Z,89.20
2018-05-01T02:01:45.093Z,88.80
2018-05-01T02:04:12.856Z,88.20
2018-05-01T02:06:39.869Z,88.00
2018-05-01T02:09:06.888Z,87.40
2018-05-01T02:11:33.884Z,85.40
2018-05-01T02:14:00.908Z,85.20
2018-05-01T02:16:27.903Z,85.00
2018-05-01T02:18:55.689Z,85.20
2018-05-01T02:21:22.688Z,85.10
2018-05-01T02:23:49.708Z,85.20
2018-05-01T02:26:16.709Z,85.70
2018-05-01T02:28:44.477Z,85.70
2018-05-01T02:31:12.272Z,85.30
2018-05-01T02:33:39.273Z,85.20
2018-05-01T02:36:06.298Z,84.80
2018-05-01T02:38:33.301Z,84.50
2018-05-01T02:41:01.089Z,84.70
2018-05-01T02:43:28.080Z,84.70
2018-05-01T02:45:55.092Z,84.70
2018-05-01T02:48:22.089Z,84.60
2018-05-01T02:50:49.108Z,84.50
2018-05-01T02:53:16.110Z,84.60
2018-05-01T02:55:43.117Z,84.50
2018-05-01T02:58:10.148Z,84.40
2018-05-01T03:00:37.164Z,84.80
2018-05-01T03:03:04.183Z,84.70
2018-05-01T03:05:31.939Z,84.90
2018-05-01T03:07:59.719Z,84.70
2018-05-01T03:10:27.484Z,85.10
2018-05-01T03:12:55.268Z,84.90
2018-05-01T03:15:22.259Z,84.90
2018-05-01T03:17:49.275Z,84.60
2018-05-01T03:20:16.272Z,84.40
2018-05-01T03:22:43.263Z,84.60
2018-05-01T03:25:10.285Z,84.50
2018-05-01T03:27:37.279Z,84.60
2018-05-01T03:30:04.288Z,84.80
2018-05-01T03:32:31.284Z,84.40
2018-05-01T03:34:58.304Z,84.60
2018-05-01T03:37:25.300Z,84.70
2018-05-01T03:39:52.316Z,84.30
2018-05-01T03:42:19.312Z,84.70
2018-05-01T03:44:47.095Z,85.40
2018-05-01T03:47:14.086Z,85.30
2018-05-01T03:49:41.074Z,85.80
2018-05-01T03:52:08.098Z,85.90
2018-05-01T03:54:35.100Z,86.00
2018-05-01T03:57:02.110Z,87.60
2018-05-01T03:59:29.863Z,88.40
2018-05-01T04:01:56.875Z,88.40
2018-05-01T04:04:23.864Z,88.70
2018-05-01T04:06:51.638Z,89.60
2018-05-01T04:09:18.647Z,89.20
2018-05-01T04:11:45.668Z,89.40
2018-05-01T04:14:12.663Z,89.40
2018-05-01T04:16:40.415Z,90.00
2018-05-01T04:19:07.427Z,90.00
2018-05-01T04:21:34.419Z,90.00
2018-05-01T04:24:02.936Z,90.00
2018-05-01T04:26:29.927Z,90.00
2018-05-01T04:28:56.942Z,90.00
2018-05-01T04:31:23.935Z,90.10
2018-05-01T04:33:50.947Z,90.00
2018-05-01T04:36:17.935Z,89.90
2018-05-01T04:38:44.947Z,90.10
2018-05-01T04:41:11.934Z,90.00
2018-05-01T04:43:38.924Z,89.70
2018-05-01T04:46:05.935Z,89.70
2018-05-01T04:48:33.696Z,88.60
2018-05-01T04:51:01.475Z,87.40
2018-05-01T04:53:29.226Z,88.00
2018-05-01T04:55:57.010Z,88.40
2018-05-01T04:58:24.768Z,87.20
2018-05-01T05:00:52.704Z,86.40
2018-05-01T05:03:19.782Z,86.40
2018-05-01T05:05:46.749Z,86.10
2018-05-01T05:08:13.740Z,86.50
2018-05-01T05:10:40.728Z,86.50
2018-05-01T05:13:08.507Z,84.40
2018-05-01T05:15:35.503Z,84.40
2018-05-01T05:18:02.520Z,85.70
2018-05-01T05:20:29.511Z,84.30
2018-05-01T05:22:56.523Z,84.30
2018-05-01T05:25:23.512Z,83.40
2018-05-01T05:27:50.526Z,83.90
2018-05-01T05:30:17.515Z,83.90
2018-05-01T05:32:45.291Z,84.40
2018-05-01T05:35:12.288Z,84.40
2018-05-01T05:37:39.288Z,84.60
2018-05-01T05:40:06.303Z,84.90
2018-05-01T05:42:33.296Z,84.50
2018-05-01T05:45:00.307Z,84.60
2018-05-01T05:47:28.063Z,83.10
2018-05-01T05:49:55.076Z,83.10
2018-05-01T05:52:22.063Z,83.00
2018-05-01T05:54:49.087Z,83.80
2018-05-01T05:57:16.083Z,84.00
2018-05-01T05:59:43.100Z,83.70
2018-05-01T06:02:10.860Z,83.80
2018-05-01T06:04:37.856Z,83.40
2018-05-01T06:07:04.866Z,83.30
2018-05-01T06:09:32.621Z,84.30
2018-05-01T06:12:00.408Z,83.90
2018-05-01T06:14:28.163Z,83.40
2018-05-01T06:16:55.939Z,83.60
2018-05-01T06:19:23.703Z,83.40
2018-05-01T06:21:51.496Z,83.20
2018-05-01T06:24:18.483Z,83.20
2018-05-01T06:26:46.263Z,81.70
2018-05-01T06:29:14.023Z,82.60
2018-05-01T06:31:41.019Z,82.10
2018-05-01T06:34:08.031Z,80.80
2018-05-01T06:36:35.788Z,82.70
2018-05-01T06:39:03.564Z,83.00
2018-05-01T06:41:31.327Z,82.60
2018-05-01T06:43:59.188Z,81.50
2018-05-01T06:46:26.115Z,81.40
2018-05-01T06:48:53.128Z,81.90
2018-05-01T06:51:20.123Z,81.60
2018-05-01T06:53:47.904Z,81.20
2018-05-01T06:56:14.899Z,80.40
2018-05-01T06:58:41.908Z,80.80
2018-05-01T07:01:08.923Z,80.60
2018-05-01T07:03:35.915Z,80.40
2018-05-01T07:06:02.923Z,80.70
2018-05-01T07:08:30.683Z,79.90
2018-05-01T07:10:57.700Z,79.10
2018-05-01T07:13:24.695Z,79.80
2018-05-01T07:15:52.530Z,77.90
2018-05-01T07:18:19.488Z,77.90
2018-05-01T07:20:47.267Z,76.70
2018-05-01T07:23:15.024Z,76.20
2018-05-01T07:25:42.784Z,77.40
2018-05-01T07:28:10.567Z,77.40
2018-05-01T07:30:37.560Z,77.40
2018-05-01T07:33:04.575Z,77.40
2018-05-01T07:35:31.613Z,76.60
2018-05-01T07:37:58.595Z,76.40
2018-05-01T07:40:25.592Z,76.40
2018-05-01T07:42:53.380Z,76.70
2018-05-01T07:45:20.378Z,76.70
2018-05-01T07:47:47.396Z,76.90
2018-05-01T07:50:14.392Z,76.00
2018-05-01T07:52:42.149Z,76.20
2018-05-01T07:55:09.931Z,76.20
2018-05-01T07:57:37.683Z,77.70
2018-05-01T08:00:05.463Z,76.60
2018-05-01T08:02:32.455Z,77.70
2018-05-01T08:04:59.476Z,76.10
2018-05-01T08:07:26.492Z,76.20
2018-05-01T08:09:54.275Z,74.80
2018-05-01T08:12:21.267Z,74.80
2018-05-01T08:14:48.287Z,74.90
2018-05-01T08:17:15.279Z,74.20
2018-05-01T08:19:42.275Z,74.20
2018-05-01T08:22:09.292Z,72.80
2018-05-01T08:24:37.051Z,73.90
2018-05-01T08:27:04.839Z,72.10
2018-05-01T08:29:31.840Z,72.10
2018-05-01T08:31:58.855Z,72.20
2018-05-01T08:34:25.847Z,72.10
2018-05-01T08:36:54.372Z,73.00
2018-05-01T08:39:21.367Z,72.10
2018-05-01T08:41:48.383Z,70.80
2018-05-01T08:44:15.376Z,70.50
2018-05-01T08:46:43.135Z,71.60
2018-05-01T08:49:10.151Z,70.60
2018-05-01T08:51:37.144Z,70.00
2018-05-01T08:54:04.923Z,70.00
2018-05-01T08:56:31.912Z,69.80
2018-05-01T08:58:58.946Z,70.80
2018-05-01T09:01:25.941Z,70.70
2018-05-01T09:03:53.719Z,70.00
2018-05-01T09:06:21.480Z,69.70
2018-05-01T09:08:49.269Z,68.90
2018-05-01T09:11:16.267Z,68.80
2018-05-01T09:13:43.268Z,69.30
2018-05-01T09:16:10.278Z,68.10
2018-05-01T09:18:38.039Z,68.50
2018-05-01T09:21:05.823Z,68.20
2018-05-01T09:23:33.583Z,67.70
2018-05-01T09:26:01.359Z,67.90
2018-05-01T09:28:28.355Z,67.80
2018-05-01T09:30:55.375Z,66.10
2018-05-01T09:33:22.363Z,66.20
2018-05-01T09:35:49.383Z,66.60
2018-05-01T09:38:16.379Z,65.40
2018-05-01T09:40:44.146Z,64.20
2018-05-01T09:43:11.929Z,65.30
2018-05-01T09:45:38.925Z,65.20
2018-05-01T09:48:05.939Z,64.30
2018-05-01T09:50:32.944Z,64.70
2018-05-01T09:53:01.220Z,65.50
2018-05-01T09:55:29.476Z,66.30
2018-05-01T09:57:56.988Z,66.20
2018-05-01T10:00:24.479Z,65.70
2018-05-01T10:02:51.971Z,65.00
2018-05-01T10:05:20.248Z,64.60
2018-05-01T10:07:48.496Z,63.90
2018-05-01T10:10:16.004Z,63.80
2018-05-01T10:12:43.482Z,62.50
2018-05-01T10:15:10.986Z,62.80
2018-05-01T10:17:39.975Z,63.00
2018-05-01T10:20:07.475Z,63.00
2018-05-01T10:22:34.961Z,62.40
2018-05-01T10:25:02.470Z,62.20
2018-05-01T10:27:30.719Z,60.50
2018-05-01T10:29:58.200Z,60.40
2018-05-01T10:32:26.480Z,59.30
2018-05-01T10:34:53.958Z,59.10
2018-05-01T10:37:21.471Z,59.10
2018-05-01T10:39:48.964Z,59.50
2018-05-01T10:42:17.235Z,60.80
2018-05-01T10:44:44.735Z,60.80
2018-05-01T10:47:12.240Z,58.10
2018-05-01T10:49:39.724Z,55.70
2018-05-01T10:52:07.236Z,55.10
2018-05-01T10:54:34.727Z,54.70
2018-05-01T10:57:02.228Z,53.10
2018-05-01T10:59:29.743Z,53.70
2018-05-01T11:01:57.995Z,53.50
2018-05-01T11:04:25.508Z,53.40
2018-05-01T11:06:52.997Z,53.10
2018-05-01T11:09:20.508Z,52.10
2018-05-01T11:11:47.995Z,52.70
2018-05-01T11:14:15.507Z,50.40
2018-05-01T11:16:43.755Z,48.90
2018-05-01T11:19:11.235Z,48.90
2018-05-01T11:21:39.511Z,46.60
2018-05-01T11:24:07.767Z,46.00
2018-05-01T11:26:35.270Z,45.90
2018-05-01T11:29:02.761Z,45.90
2018-05-01T11:31:30.263Z,44.10
2018-05-01T11:33:58.512Z,45.70
2018-05-01T11:36:26.019Z,45.60
2018-05-01T11:38:53.509Z,43.60
2018-05-01T11:41:21.006Z,42.00
2018-05-01T11:43:48.550Z,40.10
2018-05-01T11:46:16.040Z,39.20
2018-05-01T11:48:44.307Z,37.60
2018-05-01T11:51:12.551Z,37.00
2018-05-01T11:53:40.134Z,36.80
2018-05-01T11:56:07.554Z,35.30
2018-05-01T11:58:35.059Z,33.70
2018-05-01T12:01:03.311Z,34.60
2018-05-01T12:03:30.799Z,34.50
2018-05-01T12:05:59.067Z,31.70
2018-05-01T12:08:26.555Z,31.60
2018-05-01T12:10:54.072Z,29.30
2018-05-01T12:13:21.554Z,27.70
2018-05-01T12:15:49.828Z,27.30
2018-05-01T12:18:18.075Z,27.20
2018-05-01T12:20:45.560Z,27.20
2018-05-01T12:23:13.831Z,26.40
2018-05-01T12:25:42.084Z,27.10
2018-05-01T12:28:09.586Z,27.10
2018-05-01T12:30:37.066Z,28.20
2018-05-01T12:33:04.575Z,26.00
2018-05-01T12:35:32.060Z,24.20
2018-05-01T12:37:59.549Z,24.80
2018-05-01T12:40:27.056Z,25.30
2018-05-01T12:42:55.312Z,25.70
2018-05-01T12:45:22.824Z,25.70
2018-05-01T12:47:50.308Z,26.70
2018-05-01T12:50:17.828Z,26.30
2018-05-01T12:52:45.315Z,25.80
2018-05-01T12:55:12.799Z,24.10
2018-05-01T12:57:40.309Z,24.10
2018-05-01T13:00:07.794Z,25.10
2018-05-01T13:02:35.304Z,24.00
2018-05-01T13:05:03.615Z,24.90
2018-05-01T13:07:31.851Z,26.50
2018-05-01T13:10:00.100Z,25.90
2018-05-01T13:12:27.613Z,25.90
2018-05-01T13:14:55.111Z,26.60
2018-05-01T13:17:22.595Z,28.00
2018-05-01T13:19:50.105Z,28.10
2018-05-01T13:22:17.596Z,28.40
2018-05-01T13:24:45.099Z,29.40
2018-05-01T13:27:12.579Z,30.00
2018-05-01T13:29:40.080Z,29.30
2018-05-01T13:32:07.563Z,29.90
2018-05-01T13:34:35.836Z,30.00
2018-05-01T13:37:04.083Z,31.00
2018-05-01T13:39:31.591Z,30.90
2018-05-01T13:41:59.086Z,30.60
2018-05-01T13:44:26.596Z,30.70
2018-05-01T13:46:54.084Z,29.90
2018-05-01T13:49:21.567Z,30.20
2018-05-01T13:51:49.071Z,29.90
2018-05-01T13:54:16.639Z,30.20
2018-05-01T13:56:44.075Z,28.90
2018-05-01T13:59:12.319Z,28.00
2018-05-01T14:01:39.821Z,28.00
2018-05-01T14:04:07.305Z,26.40
2018-05-01T14:06:34.816Z,26.50
2018-05-01T14:09:02.304Z,26.20
2018-05-01T14:11:29.803Z,26.20
2018-05-01T14:13:57.287Z,27.80
2018-05-01T14:16:24.769Z,28.10
2018-05-01T14:18:52.284Z,28.00
2018-05-01T14:21:19.763Z,29.20
2018-05-01T14:23:47.274Z,28.30
2018-05-01T14:26:14.759Z,28.50
2018-05-01T14:28:42.267Z,28.50
2018-05-01T14:31:09.759Z,28.80
2018-05-01T14:33:37.269Z,29.50
2018-05-01T14:36:05.519Z,30.30
2018-05-01T14:38:33.032Z,30.80
2018-05-01T14:41:00.519Z,30.90
2018-05-01T14:43:28.003Z,31.10
2018-05-01T14:45:55.508Z,31.70
2018-05-01T14:48:22.996Z,31.30
2018-05-01T14:50:50.507Z,31.90
2018-05-01T14:53:17.996Z,32.10
2018-05-01T14:55:45.502Z,32.50
2018-05-01T14:58:13.753Z,33.20
2018-05-01T15:00:41.264Z,33.20
2018-05-01T15:03:09.511Z,32.40
2018-05-01T15:05:37.763Z,32.50
2018-05-01T15:08:05.281Z,32.50
2018-05-01T15:10:32.951Z,32.20
2018-05-01T15:13:00.456Z,32.70
2018-05-01T15:15:27.947Z,33.10
2018-05-01T15:17:55.460Z,33.50
2018-05-01T15:20:22.951Z,33.40
2018-05-01T15:22:51.204Z,33.20
2018-05-01T15:25:20.220Z,32.60
2018-05-01T15:27:48.467Z,31.70
2018-05-01T15:30:16.040Z,31.70
2018-05-01T15:32:43.476Z,31.70
2018-05-01T15:35:10.983Z,32.00
2018-05-01T15:37:38.518Z,31.30
2018-05-01T15:40:06.004Z,31.00
2018-05-01T15:42:33.487Z,31.30
2018-05-01T15:45:00.995Z,31.50
2018-05-01T15:47:29.267Z,32.00
2018-05-01T15:49:57.519Z,32.70
2018-05-01T15:52:25.024Z,32.70
2018-05-01T15:54:53.279Z,33.00
2018-05-01T15:57:20.786Z,32.90
2018-05-01T15:59:48.276Z,33.40
2018-05-01T16:02:15.763Z,34.10
2018-05-01T16:04:44.044Z,33.80
2018-05-01T16:07:12.299Z,34.20
2018-05-01T16:09:40.588Z,34.90
2018-05-01T16:12:08.839Z,35.00
2018-05-01T16:14:36.348Z,34.20
2018-05-01T16:17:03.840Z,34.40
2018-05-01T16:19:31.328Z,34.40
2018-05-01T16:21:58.831Z,34.90
2018-05-01T16:24:26.324Z,33.80
2018-05-01T16:26:53.836Z,34.20
2018-05-01T16:29:21.320Z,33.90
2018-05-01T16:31:48.831Z,34.30
2018-05-01T16:34:17.088Z,33.90
2018-05-01T16:36:44.575Z,33.80
2018-05-01T16:39:12.851Z,34.10
2018-05-01T16:41:41.103Z,34.40
2018-05-01T16:44:08.603Z,34.40
2018-05-01T16:46:36.087Z,34.40
2018-05-01T16:49:03.596Z,34.80
2018-05-01T16:51:31.843Z,35.10
2018-05-01T16:53:59.323Z,35.10
2018-05-01T16:56:27.599Z,34.60
2018-05-01T16:58:55.851Z,34.60
2018-05-01T17:01:23.360Z,34.60
2018-05-01T17:03:50.851Z,34.70
2018-05-01T17:06:18.360Z,35.10
2018-05-01T17:08:46.607Z,35.30
2018-05-01T17:11:14.096Z,35.30
2018-05-01T17:13:42.367Z,35.00
2018-05-01T17:16:10.615Z,34.70
2018-05-01T17:18:38.119Z,34.70
2018-05-01T17:21:05.599Z,35.80
2018-05-01T17:23:33.107Z,35.10
2018-05-01T17:26:01.379Z,35.30
2018-05-01T17:28:28.862Z,35.30
2018-05-01T17:30:57.135Z,35.90
2018-05-01T17:33:25.379Z,35.70
2018-05-01T17:35:52.891Z,35.70
2018-05-01T17:38:20.381Z,35.20
2018-05-01T17:40:47.950Z,35.30
2018-05-01T17:43:15.395Z,35.10
2018-05-01T17:45:42.879Z,35.60
2018-05-01T17:48:11.146Z,35.40
2018-05-01T17:50:38.627Z,35.40
2018-05-01T17:53:06.907Z,36.20
2018-05-01T17:55:35.155Z,36.80
2018-05-01T17:58:02.659Z,36.80
2018-05-01T18:00:30.139Z,36.70
2018-05-01T18:02:57.618Z,36.30
2018-05-01T18:05:25.127Z,36.30
2018-05-01T18:07:53.379Z,36.20
2018-05-01T18:10:20.883Z,36.20
2018-05-01T18:12:48.371Z,36.40
2018-05-01T18:15:15.883Z,36.90
2018-05-01T18:17:43.372Z,37.60
2018-05-01T18:20:10.884Z,36.80
2018-05-01T18:22:39.135Z,37.40
2018-05-01T18:25:06.615Z,37.30
2018-05-01T18:27:34.896Z,38.40
2018-05-01T18:30:03.227Z,38.10
2018-05-01T18:32:30.667Z,38.00
2018-05-01T18:34:58.155Z,38.30
2018-05-01T18:37:25.658Z,38.60
2018-05-01T18:39:53.148Z,39.00
2018-05-01T18:42:20.631Z,39.10
2018-05-01T18:44:48.139Z,39.60
2018-05-01T18:47:15.643Z,39.50
2018-05-01T18:49:43.151Z,40.20
2018-05-01T18:52:11.403Z,40.50
2018-05-01T18:54:38.903Z,40.50
2018-05-01T18:57:06.392Z,41.00
2018-05-01T18:59:33.875Z,41.00
2018-05-01T19:02:01.391Z,41.40
2018-05-01T19:04:28.932Z,42.30
2018-05-01T19:06:56.403Z,41.60
2018-05-01T19:09:23.892Z,41.80
2018-05-01T19:11:51.380Z,41.80
2018-05-01T19:14:19.655Z,42.30
2018-05-01T19:16:47.908Z,42.70
2018-05-01T19:19:15.412Z,42.50
2018-05-01T19:21:42.895Z,43.20
2018-05-01T19:24:10.380Z,43.80
2018-05-01T19:26:37.883Z,43.90
2018-05-01T19:29:05.371Z,43.80
2018-05-01T19:31:32.876Z,43.80
2018-05-01T19:34:00.370Z,43.60
2018-05-01T19:36:27.871Z,44.30
2018-05-01T19:38:55.362Z,44.40
2018-05-01T19:41:23.607Z,44.40
2018-05-01T19:43:51.112Z,44.30
2018-05-01T19:46:18.591Z,45.00
2018-05-01T19:48:46.100Z,44.40
2018-05-01T19:51:14.355Z,44.60
2018-05-01T19:53:41.862Z,44.60
2018-05-01T19:56:09.372Z,45.60
2018-05-01T19:58:36.860Z,45.70
2018-05-01T20:01:05.135Z,46.10
2018-05-01T20:03:33.383Z,45.80
2018-05-01T20:06:00.867Z,45.70
2018-05-01T20:08:29.143Z,46.60
2018-05-01T20:10:57.391Z,46.80
2018-05-01T20:13:25.663Z,47.30
2018-05-01T20:15:53.158Z,47.60
2018-05-01T20:18:21.427Z,47.30
2018-05-01T20:20:48.911Z,47.30
2018-05-01T20:23:16.423Z,47.20
2018-05-01T20:25:43.903Z,48.20
2018-05-01T20:28:12.161Z,50.20
2018-05-01T20:30:39.670Z,49.60
2018-05-01T20:33:07.158Z,49.80
2018-05-01T20:35:34.670Z,50.30
2018-05-01T20:38:02.919Z,50.30
2018-05-01T20:40:30.428Z,50.30
2018-05-01T20:42:57.915Z,50.50
2018-05-01T20:45:25.397Z,50.80
2018-05-01T20:47:54.417Z,51.70
2018-05-01T20:50:22.671Z,51.80
2018-05-01T20:52:50.180Z,51.70
2018-05-01T20:55:17.668Z,52.50
2018-05-01T20:57:45.176Z,52.70
2018-05-01T21:00:12.660Z,52.80
2018-05-01T21:02:40.143Z,53.00
2018-05-01T21:05:07.648Z,53.70
2018-05-01T21:07:35.131Z,53.70
2018-05-01T21:10:02.641Z,54.90
2018-05-01T21:12:30.984Z,55.40
2018-05-01T21:14:58.491Z,56.10
2018-05-01T21:17:26.739Z,57.80
2018-05-01T21:19:54.248Z,57.80
2018-05-01T21:22:21.731Z,58.70
2018-05-01T21:24:49.215Z,59.60
2018-05-01T21:27:16.724Z,60.00
2018-05-01T21:29:44.207Z,61.20
2018-05-01T21:32:11.716Z,61.80
2018-05-01T21:34:39.964Z,63.00
2018-05-01T21:37:07.469Z,63.00
2018-05-01T21:39:34.963Z,65.00
2018-05-01T21:42:02.451Z,65.30
2018-05-01T21:44:29.959Z,65.80
2018-05-01T21:46:57.443Z,67.10
2018-05-01T21:49:24.994Z,67.30
2018-05-01T21:51:52.460Z,67.70
2018-05-01T21:54:19.967Z,68.30
2018-05-01T21:56:48.243Z,70.70
2018-05-01T21:59:16.491Z,71.50
2018-05-01T22:01:44.003Z,71.40
2018-05-01T22:04:11.494Z,72.40
2018-05-01T22:06:38.980Z,73.50
2018-05-01T22:09:07.256Z,75.00
2018-05-01T22:11:35.508Z,75.30
2018-05-01T22:14:03.011Z,75.20
2018-05-01T22:16:30.495Z,75.80
2018-05-01T22:18:58.008Z,76.40
2018-05-01T22:21:26.255Z,78.10
2018-05-01T22:23:53.739Z,78.00
2018-05-01T22:26:22.007Z,79.80
2018-05-01T22:28:50.301Z,80.30
2018-05-01T22:31:17.780Z,80.30
2018-05-01T22:33:45.268Z,80.40
2018-05-01T22:36:12.755Z,81.40
2018-05-01T22:38:41.028Z,81.70
2018-05-01T22:41:08.515Z,81.80
2018-05-01T22:43:36.792Z,83.00
2018-05-01T22:46:05.052Z,84.50
2018-05-01T22:48:33.328Z,85.10
2018-05-01T22:51:01.588Z,84.70
2018-05-01T22:53:29.071Z,84.70
2018-05-01T22:55:57.344Z,85.20
2018-05-01T22:58:25.590Z,86.20
2018-05-01T23:00:53.093Z,86.20
2018-05-01T23:03:20.575Z,86.40
2018-05-01T23:05:48.084Z,86.70
2018-05-01T23:08:15.559Z,87.90
2018-05-01T23:10:43.803Z,88.70
2018-05-01T23:13:11.307Z,88.70
2018-05-01T23:15:38.783Z,89.50
2018-05-01T23:18:06.283Z,90.20
2018-05-01T23:20:33.759Z,90.50
2018-05-01T23:23:02.028Z,90.70
2018-05-01T23:25:29.508Z,90.70
2018-05-01T23:27:57.752Z,91.00
2018-05-01T23:30:25.256Z,90.90
2018-05-01T23:32:52.739Z,91.00
2018-05-01T23:35:20.243Z,91.20
2018-05-01T23:37:48.488Z,91.40
2018-05-01T23:40:15.987Z,91.40
2018-05-01T23:42:44.239Z,91.80
2018-05-01T23:45:11.740Z,91.80
2018-05-01T23:47:39.223Z,91.90
2018-05-01T23:50:06.712Z,92.00
2018-05-01T23:52:34.219Z,92.30
2018-05-01T23:55:01.701Z,92.20
2018-05-01T23:57:29.203Z,92.10
2018-05-01T23:59:57.447Z,92.10
